sensor_id;sensor_type;location;lat;lon;timestamp;temperature;humidity
2489;DHT22;1255;48.716;9.124;2024-02-21T00:01:15;5.30;99.90
2489;DHT22;1255;48.716;9.124;2024-02-21T00:03:42;5.30;99.90
2489;DHT22;1255;48.716;9.124;2024-02-21T00:06:08;5.30;99.90
2489;DHT22;1255;48.716;9.124;2024-02-21T00:08:35;5.30;99.90
2489;DHT22;1255;48.716;9.124;2024-02-21T00:11:03;5.30;99.90
2489;DHT22;1255;48.716;9.124;2024-02-21T00:13:30;5.30;99.90
2489;DHT22;1255;48.716;9.124;2024-02-21T00:15:57;5.30;99.90
2489;DHT22;1255;48.716;9.124;2024-02-21T00:18:24;5.30;99.90
2489;DHT22;1255;48.716;9.124;2024-02-21T00:20:50;5.30;99.90
2489;DHT22;1255;48.716;9.124;2024-02-21T00:23:16;5.30;99.90
2489;DHT22;1255;48.716;9.124;2024-02-21T00:25:43;5.30;99.90
2489;DHT22;1255;48.716;9.124;2024-02-21T00:28:11;5.30;99.90
2489;DHT22;1255;48.716;9.124;2024-02-21T00:30:38;5.30;99.90
2489;DHT22;1255;48.716;9.124;2024-02-21T00:33:05;5.30;99.90
2489;DHT22;1255;48.716;9.124;2024-02-21T00:35:31;5.30;99.90
2489;DHT22;1255;48.716;9.124;2024-02-21T00:37:58;5.30;99.90
2489;DHT22;1255;48.716;9.124;2024-02-21T00:40:25;5.40;99.90
2489;DHT22;1255;48.716;9.124;2024-02-21T00:42:52;5.40;99.90
2489;DHT22;1255;48.716;9.124;2024-02-21T00:45:19;5.40;99.90
2489;DHT22;1255;48.716;9.124;2024-02-21T00:47:45;5.40;99.90
2489;DHT22;1255;48.716;9.124;2024-02-21T00:50:12;5.50;99.90
2489;DHT22;1255;48.716;9.124;2024-02-21T00:52:39;5.50;99.90
2489;DHT22;1255;48.716;9.124;2024-02-21T00:55:06;5.50;99.90
2489;DHT22;1255;48.716;9.124;2024-02-21T00:57:32;5.50;99.90
2489;DHT22;1255;48.716;9.124;2024-02-21T00:59:59;5.50;99.90
2489;DHT22;1255;48.716;9.124;2024-02-21T01:02:27;5.50;99.90
2489;DHT22;1255;48.716;9.124;2024-02-21T01:04:56;5.50;99.90
2489;DHT22;1255;48.716;9.124;2024-02-21T01:07:23;5.50;99.90
2489;DHT22;1255;48.716;9.124;2024-02-21T01:09:50;5.50;99.90
2489;DHT22;1255;48.716;9.124;2024-02-21T01:12:17;5.60;99.90
2489;DHT22;1255;48.716;9.124;2024-02-21T01:14:44;5.50;99.90
2489;DHT22;1255;48.716;9.124;2024-02-21T01:17:11;5.50;99.90
2489;DHT22;1255;48.716;9.124;2024-02-21T01:19:39;5.50;99.90
2489;DHT22;1255;48.716;9.124;2024-02-21T01:22:06;5.50;99.90
2489;DHT22;1255;48.716;9.124;2024-02-21T01:24:33;5.50;99.90
2489;DHT22;1255;48.716;9.124;2024-02-21T01:26:59;5.50;99.90
2489;DHT22;1255;48.716;9.124;2024-02-21T01:29:26;5.50;99.90
2489;DHT22;1255;48.716;9.124;2024-02-21T01:31:53;5.50;99.90
2489;DHT22;1255;48.716;9.124;2024-02-21T01:34:20;5.50;99.90
2489;DHT22;1255;48.716;9.124;2024-02-21T01:36:48;5.40;99.90
2489;DHT22;1255;48.716;9.124;2024-02-21T01:39:14;5.40;99.90
2489;DHT22;1255;48.716;9.124;2024-02-21T01:41:41;5.40;99.90
2489;DHT22;1255;48.716;9.124;2024-02-21T01:44:08;5.40;99.90
2489;DHT22;1255;48.716;9.124;2024-02-21T01:46:35;5.50;99.90
2489;DHT22;1255;48.716;9.124;2024-02-21T01:49:02;5.50;99.90
2489;DHT22;1255;48.716;9.124;2024-02-21T01:51:30;5.40;99.90
2489;DHT22;1255;48.716;9.124;2024-02-21T01:53:59;5.40;99.90
2489;DHT22;1255;48.716;9.124;2024-02-21T01:56:25;5.50;99.90
2489;DHT22;1255;48.716;9.124;2024-02-21T01:58:53;5.50;99.90
2489;DHT22;1255;48.716;9.124;2024-02-21T02:01:20;5.50;99.90
2489;DHT22;1255;48.716;9.124;2024-02-21T02:03:47;5.50;99.90
2489;DHT22;1255;48.716;9.124;2024-02-21T02:06:14;5.50;99.90
2489;DHT22;1255;48.716;9.124;2024-02-21T02:08:42;5.50;99.90
2489;DHT22;1255;48.716;9.124;2024-02-21T02:11:10;5.50;99.90
2489;DHT22;1255;48.716;9.124;2024-02-21T02:13:39;5.50;99.90
2489;DHT22;1255;48.716;9.124;2024-02-21T02:16:06;5.50;99.90
2489;DHT22;1255;48.716;9.124;2024-02-21T02:18:33;5.50;99.90
2489;DHT22;1255;48.716;9.124;2024-02-21T02:21:00;5.50;99.90
2489;DHT22;1255;48.716;9.124;2024-02-21T02:23:28;5.50;99.90
2489;DHT22;1255;48.716;9.124;2024-02-21T02:25:55;5.40;99.90
2489;DHT22;1255;48.716;9.124;2024-02-21T02:28:22;5.40;99.90
2489;DHT22;1255;48.716;9.124;2024-02-21T02:30:50;5.40;99.90
2489;DHT22;1255;48.716;9.124;2024-02-21T02:33:17;5.50;99.90
2489;DHT22;1255;48.716;9.124;2024-02-21T02:35:44;5.40;99.90
2489;DHT22;1255;48.716;9.124;2024-02-21T02:38:11;5.50;99.90
2489;DHT22;1255;48.716;9.124;2024-02-21T02:40:40;5.40;99.90
2489;DHT22;1255;48.716;9.124;2024-02-21T02:43:07;5.50;99.90
2489;DHT22;1255;48.716;9.124;2024-02-21T02:45:33;5.50;99.90
2489;DHT22;1255;48.716;9.124;2024-02-21T02:48:00;5.50;99.90
2489;DHT22;1255;48.716;9.124;2024-02-21T02:50:27;5.50;99.90
2489;DHT22;1255;48.716;9.124;2024-02-21T02:52:55;5.50;99.90
2489;DHT22;1255;48.716;9.124;2024-02-21T02:55:22;5.50;99.90
2489;DHT22;1255;48.716;9.124;2024-02-21T02:57:50;5.50;99.90
2489;DHT22;1255;48.716;9.124;2024-02-21T03:00:17;5.50;99.90
2489;DHT22;1255;48.716;9.124;2024-02-21T03:02:46;5.50;99.90
2489;DHT22;1255;48.716;9.124;2024-02-21T03:05:13;5.50;99.90
2489;DHT22;1255;48.716;9.124;2024-02-21T03:07:41;5.50;99.90
2489;DHT22;1255;48.716;9.124;2024-02-21T03:10:08;5.50;99.90
2489;DHT22;1255;48.716;9.124;2024-02-21T03:12:35;5.50;99.90
2489;DHT22;1255;48.716;9.124;2024-02-21T03:15:04;5.50;99.90
2489;DHT22;1255;48.716;9.124;2024-02-21T03:17:31;5.50;99.90
2489;DHT22;1255;48.716;9.124;2024-02-21T03:19:59;5.40;99.90
2489;DHT22;1255;48.716;9.124;2024-02-21T03:22:26;5.40;99.90
2489;DHT22;1255;48.716;9.124;2024-02-21T03:24:53;5.40;99.90
2489;DHT22;1255;48.716;9.124;2024-02-21T03:27:20;5.40;99.90
2489;DHT22;1255;48.716;9.124;2024-02-21T03:29:46;5.40;99.90
2489;DHT22;1255;48.716;9.124;2024-02-21T03:32:15;5.40;99.90
2489;DHT22;1255;48.716;9.124;2024-02-21T03:34:41;5.40;99.90
2489;DHT22;1255;48.716;9.124;2024-02-21T03:37:08;5.40;99.90
2489;DHT22;1255;48.716;9.124;2024-02-21T03:39:35;5.50;99.90
2489;DHT22;1255;48.716;9.124;2024-02-21T03:42:02;5.50;99.90
2489;DHT22;1255;48.716;9.124;2024-02-21T03:44:30;5.50;99.90
2489;DHT22;1255;48.716;9.124;2024-02-21T03:46:57;5.50;99.90
2489;DHT22;1255;48.716;9.124;2024-02-21T03:49:25;5.50;99.90
2489;DHT22;1255;48.716;9.124;2024-02-21T03:51:51;5.50;99.90
2489;DHT22;1255;48.716;9.124;2024-02-21T03:54:19;5.50;99.90
2489;DHT22;1255;48.716;9.124;2024-02-21T03:56:45;5.50;99.90
2489;DHT22;1255;48.716;9.124;2024-02-21T03:59:13;5.50;99.90
2489;DHT22;1255;48.716;9.124;2024-02-21T04:01:40;5.40;99.90
2489;DHT22;1255;48.716;9.124;2024-02-21T04:04:06;5.40;99.90
2489;DHT22;1255;48.716;9.124;2024-02-21T04:06:34;5.40;99.90
2489;DHT22;1255;48.716;9.124;2024-02-21T04:09:02;5.40;99.90
2489;DHT22;1255;48.716;9.124;2024-02-21T04:11:28;5.40;99.90
2489;DHT22;1255;48.716;9.124;2024-02-21T04:13:55;5.40;99.90
2489;DHT22;1255;48.716;9.124;2024-02-21T04:16:22;5.40;99.90
2489;DHT22;1255;48.716;9.124;2024-02-21T04:18:49;5.30;99.90
2489;DHT22;1255;48.716;9.124;2024-02-21T04:21:16;5.30;99.90
2489;DHT22;1255;48.716;9.124;2024-02-21T04:23:44;5.30;99.90
2489;DHT22;1255;48.716;9.124;2024-02-21T04:26:11;5.30;99.90
2489;DHT22;1255;48.716;9.124;2024-02-21T04:28:38;5.30;99.90
2489;DHT22;1255;48.716;9.124;2024-02-21T04:31:05;5.20;99.90
2489;DHT22;1255;48.716;9.124;2024-02-21T04:33:32;5.20;99.90
2489;DHT22;1255;48.716;9.124;2024-02-21T04:35:58;5.20;99.90
2489;DHT22;1255;48.716;9.124;2024-02-21T04:38:26;5.20;99.90
2489;DHT22;1255;48.716;9.124;2024-02-21T04:40:55;5.20;99.90
2489;DHT22;1255;48.716;9.124;2024-02-21T04:43:24;5.20;99.90
2489;DHT22;1255;48.716;9.124;2024-02-21T04:45:50;5.20;99.90
2489;DHT22;1255;48.716;9.124;2024-02-21T04:48:18;5.10;99.90
2489;DHT22;1255;48.716;9.124;2024-02-21T04:50:45;5.10;99.90
2489;DHT22;1255;48.716;9.124;2024-02-21T04:53:12;5.10;99.90
2489;DHT22;1255;48.716;9.124;2024-02-21T04:55:39;5.10;99.90
2489;DHT22;1255;48.716;9.124;2024-02-21T04:58:07;5.10;99.90
2489;DHT22;1255;48.716;9.124;2024-02-21T05:00:34;5.10;99.90
2489;DHT22;1255;48.716;9.124;2024-02-21T05:03:01;5.10;99.90
2489;DHT22;1255;48.716;9.124;2024-02-21T05:05:28;5.10;99.90
2489;DHT22;1255;48.716;9.124;2024-02-21T05:07:55;5.10;99.90
2489;DHT22;1255;48.716;9.124;2024-02-21T05:10:21;5.10;99.90
2489;DHT22;1255;48.716;9.124;2024-02-21T05:12:48;5.00;99.90
2489;DHT22;1255;48.716;9.124;2024-02-21T05:15:16;5.00;99.90
2489;DHT22;1255;48.716;9.124;2024-02-21T05:17:43;4.90;99.90
2489;DHT22;1255;48.716;9.124;2024-02-21T05:20:10;4.90;99.90
2489;DHT22;1255;48.716;9.124;2024-02-21T05:22:37;5.00;99.90
2489;DHT22;1255;48.716;9.124;2024-02-21T05:25:04;5.00;99.90
2489;DHT22;1255;48.716;9.124;2024-02-21T05:27:31;5.00;99.90
2489;DHT22;1255;48.716;9.124;2024-02-21T05:29:59;4.90;99.90
2489;DHT22;1255;48.716;9.124;2024-02-21T05:32:27;4.80;99.90
2489;DHT22;1255;48.716;9.124;2024-02-21T05:34:54;4.90;99.90
2489;DHT22;1255;48.716;9.124;2024-02-21T05:37:20;4.90;99.90
2489;DHT22;1255;48.716;9.124;2024-02-21T05:39:47;4.90;99.90
2489;DHT22;1255;48.716;9.124;2024-02-21T05:42:14;4.90;99.90
2489;DHT22;1255;48.716;9.124;2024-02-21T05:44:41;4.90;99.90
2489;DHT22;1255;48.716;9.124;2024-02-21T05:47:07;4.90;99.90
2489;DHT22;1255;48.716;9.124;2024-02-21T05:49:37;4.90;99.90
2489;DHT22;1255;48.716;9.124;2024-02-21T05:52:04;4.90;99.90
2489;DHT22;1255;48.716;9.124;2024-02-21T05:54:31;4.90;99.90
2489;DHT22;1255;48.716;9.124;2024-02-21T05:56:58;4.90;99.90
2489;DHT22;1255;48.716;9.124;2024-02-21T05:59:25;4.90;99.90
2489;DHT22;1255;48.716;9.124;2024-02-21T06:01:57;4.90;99.90
2489;DHT22;1255;48.716;9.124;2024-02-21T06:04:24;4.90;99.90
2489;DHT22;1255;48.716;9.124;2024-02-21T06:06:52;4.80;99.90
2489;DHT22;1255;48.716;9.124;2024-02-21T06:09:19;4.80;99.90
2489;DHT22;1255;48.716;9.124;2024-02-21T06:11:46;4.70;99.90
2489;DHT22;1255;48.716;9.124;2024-02-21T06:14:14;4.70;99.90
2489;DHT22;1255;48.716;9.124;2024-02-21T06:16:42;4.70;99.90
2489;DHT22;1255;48.716;9.124;2024-02-21T06:19:09;4.70;99.90
2489;DHT22;1255;48.716;9.124;2024-02-21T06:21:36;4.70;99.90
2489;DHT22;1255;48.716;9.124;2024-02-21T06:24:05;4.70;99.90
2489;DHT22;1255;48.716;9.124;2024-02-21T06:26:31;4.70;99.90
2489;DHT22;1255;48.716;9.124;2024-02-21T06:28:58;4.70;99.90
2489;DHT22;1255;48.716;9.124;2024-02-21T06:31:27;4.60;99.90
2489;DHT22;1255;48.716;9.124;2024-02-21T06:33:54;4.60;99.90
2489;DHT22;1255;48.716;9.124;2024-02-21T06:36:20;4.60;99.90
2489;DHT22;1255;48.716;9.124;2024-02-21T06:38:47;4.60;99.90
2489;DHT22;1255;48.716;9.124;2024-02-21T06:41:18;4.60;99.90
2489;DHT22;1255;48.716;9.124;2024-02-21T06:43:45;4.70;99.90
2489;DHT22;1255;48.716;9.124;2024-02-21T06:46:12;4.70;99.90
2489;DHT22;1255;48.716;9.124;2024-02-21T06:48:38;4.70;99.90
2489;DHT22;1255;48.716;9.124;2024-02-21T06:51:05;4.70;99.90
2489;DHT22;1255;48.716;9.124;2024-02-21T06:53:32;4.80;99.90
2489;DHT22;1255;48.716;9.124;2024-02-21T06:55:59;4.80;99.90
2489;DHT22;1255;48.716;9.124;2024-02-21T06:58:27;4.80;99.90
2489;DHT22;1255;48.716;9.124;2024-02-21T07:00:53;4.90;99.90
2489;DHT22;1255;48.716;9.124;2024-02-21T07:03:20;4.90;99.90
2489;DHT22;1255;48.716;9.124;2024-02-21T07:05:47;5.00;99.90
2489;DHT22;1255;48.716;9.124;2024-02-21T07:08:13;5.10;99.90
2489;DHT22;1255;48.716;9.124;2024-02-21T07:10:40;5.20;99.90
2489;DHT22;1255;48.716;9.124;2024-02-21T07:13:07;5.20;99.90
2489;DHT22;1255;48.716;9.124;2024-02-21T07:15:35;5.30;99.90
2489;DHT22;1255;48.716;9.124;2024-02-21T07:18:03;5.30;99.90
2489;DHT22;1255;48.716;9.124;2024-02-21T07:20:30;5.40;99.90
2489;DHT22;1255;48.716;9.124;2024-02-21T07:22:59;5.50;99.90
2489;DHT22;1255;48.716;9.124;2024-02-21T07:25:25;5.70;99.90
2489;DHT22;1255;48.716;9.124;2024-02-21T07:27:52;5.70;99.90
2489;DHT22;1255;48.716;9.124;2024-02-21T07:30:19;5.80;99.90
2489;DHT22;1255;48.716;9.124;2024-02-21T07:32:49;6.00;99.90
2489;DHT22;1255;48.716;9.124;2024-02-21T07:35:16;6.50;99.90
2489;DHT22;1255;48.716;9.124;2024-02-21T07:37:43;6.90;99.90
2489;DHT22;1255;48.716;9.124;2024-02-21T07:40:12;7.40;99.90
2489;DHT22;1255;48.716;9.124;2024-02-21T07:42:39;7.90;99.90
2489;DHT22;1255;48.716;9.124;2024-02-21T07:45:07;8.00;99.90
2489;DHT22;1255;48.716;9.124;2024-02-21T07:47:34;7.90;99.90
2489;DHT22;1255;48.716;9.124;2024-02-21T07:50:02;8.10;99.90
2489;DHT22;1255;48.716;9.124;2024-02-21T07:52:29;8.10;99.90
2489;DHT22;1255;48.716;9.124;2024-02-21T07:54:55;8.20;99.90
2489;DHT22;1255;48.716;9.124;2024-02-21T07:57:22;8.30;99.90
2489;DHT22;1255;48.716;9.124;2024-02-21T07:59:49;8.30;99.90
2489;DHT22;1255;48.716;9.124;2024-02-21T08:02:16;8.40;99.90
2489;DHT22;1255;48.716;9.124;2024-02-21T08:04:43;8.60;99.90
2489;DHT22;1255;48.716;9.124;2024-02-21T08:07:11;8.70;99.90
2489;DHT22;1255;48.716;9.124;2024-02-21T08:09:39;9.00;99.90
2489;DHT22;1255;48.716;9.124;2024-02-21T08:12:06;8.80;99.90
2489;DHT22;1255;48.716;9.124;2024-02-21T08:14:33;8.80;99.90
2489;DHT22;1255;48.716;9.124;2024-02-21T08:17:00;8.60;99.90
2489;DHT22;1255;48.716;9.124;2024-02-21T08:19:26;8.30;99.90
2489;DHT22;1255;48.716;9.124;2024-02-21T08:21:53;8.20;99.90
2489;DHT22;1255;48.716;9.124;2024-02-21T08:24:21;8.20;99.90
2489;DHT22;1255;48.716;9.124;2024-02-21T08:26:48;8.50;99.90
2489;DHT22;1255;48.716;9.124;2024-02-21T08:29:15;8.70;99.90
2489;DHT22;1255;48.716;9.124;2024-02-21T08:31:42;9.00;99.90
2489;DHT22;1255;48.716;9.124;2024-02-21T08:34:09;9.20;99.90
2489;DHT22;1255;48.716;9.124;2024-02-21T08:36:36;9.60;99.90
2489;DHT22;1255;48.716;9.124;2024-02-21T08:39:03;10.20;99.90
2489;DHT22;1255;48.716;9.124;2024-02-21T08:41:32;10.60;99.90
2489;DHT22;1255;48.716;9.124;2024-02-21T08:43:59;10.40;99.90
2489;DHT22;1255;48.716;9.124;2024-02-21T08:46:26;10.40;99.90
2489;DHT22;1255;48.716;9.124;2024-02-21T08:48:53;10.00;99.90
2489;DHT22;1255;48.716;9.124;2024-02-21T08:51:20;9.80;99.90
2489;DHT22;1255;48.716;9.124;2024-02-21T08:53:48;9.80;99.90
2489;DHT22;1255;48.716;9.124;2024-02-21T08:56:15;9.80;99.90
2489;DHT22;1255;48.716;9.124;2024-02-21T08:58:43;9.50;99.90
2489;DHT22;1255;48.716;9.124;2024-02-21T09:01:08;9.30;99.90
2489;DHT22;1255;48.716;9.124;2024-02-21T09:03:36;8.90;99.90
2489;DHT22;1255;48.716;9.124;2024-02-21T09:06:04;8.80;99.90
2489;DHT22;1255;48.716;9.124;2024-02-21T09:08:31;8.90;99.90
2489;DHT22;1255;48.716;9.124;2024-02-21T09:10:57;8.90;99.90
2489;DHT22;1255;48.716;9.124;2024-02-21T09:13:24;8.90;99.90
2489;DHT22;1255;48.716;9.124;2024-02-21T09:15:52;9.10;99.90
2489;DHT22;1255;48.716;9.124;2024-02-21T09:18:19;9.40;99.90
2489;DHT22;1255;48.716;9.124;2024-02-21T09:20:46;9.60;99.90
2489;DHT22;1255;48.716;9.124;2024-02-21T09:23:13;9.60;99.90
2489;DHT22;1255;48.716;9.124;2024-02-21T09:25:40;9.70;99.90
2489;DHT22;1255;48.716;9.124;2024-02-21T09:28:07;9.80;99.90
2489;DHT22;1255;48.716;9.124;2024-02-21T09:30:34;9.70;99.90
2489;DHT22;1255;48.716;9.124;2024-02-21T09:33:02;9.90;99.90
2489;DHT22;1255;48.716;9.124;2024-02-21T09:35:30;10.20;99.90
2489;DHT22;1255;48.716;9.124;2024-02-21T09:37:59;10.70;99.90
2489;DHT22;1255;48.716;9.124;2024-02-21T09:40:26;11.50;99.90
2489;DHT22;1255;48.716;9.124;2024-02-21T09:43:02;12.30;99.90
2489;DHT22;1255;48.716;9.124;2024-02-21T09:45:32;12.30;99.90
2489;DHT22;1255;48.716;9.124;2024-02-21T09:48:21;12.20;99.90
2489;DHT22;1255;48.716;9.124;2024-02-21T09:50:49;12.80;99.90
2489;DHT22;1255;48.716;9.124;2024-02-21T09:53:16;13.50;99.90
2489;DHT22;1255;48.716;9.124;2024-02-21T09:55:45;14.00;99.90
2489;DHT22;1255;48.716;9.124;2024-02-21T09:58:13;14.00;99.90
2489;DHT22;1255;48.716;9.124;2024-02-21T10:00:39;13.60;99.90
2489;DHT22;1255;48.716;9.124;2024-02-21T10:03:07;13.00;99.90
2489;DHT22;1255;48.716;9.124;2024-02-21T10:05:35;12.50;99.90
2489;DHT22;1255;48.716;9.124;2024-02-21T10:08:03;12.20;99.90
2489;DHT22;1255;48.716;9.124;2024-02-21T10:10:30;12.00;99.90
2489;DHT22;1255;48.716;9.124;2024-02-21T10:12:56;12.20;99.90
2489;DHT22;1255;48.716;9.124;2024-02-21T10:15:24;12.40;99.90
2489;DHT22;1255;48.716;9.124;2024-02-21T10:17:59;12.70;99.90
2489;DHT22;1255;48.716;9.124;2024-02-21T10:20:28;13.10;99.90
2489;DHT22;1255;48.716;9.124;2024-02-21T10:23:01;13.90;99.90
2489;DHT22;1255;48.716;9.124;2024-02-21T10:25:28;14.30;99.80
2489;DHT22;1255;48.716;9.124;2024-02-21T10:27:55;13.90;99.20
2489;DHT22;1255;48.716;9.124;2024-02-21T10:30:22;13.90;99.40
2489;DHT22;1255;48.716;9.124;2024-02-21T10:32:49;13.50;99.40
2489;DHT22;1255;48.716;9.124;2024-02-21T10:35:26;13.50;99.50
2489;DHT22;1255;48.716;9.124;2024-02-21T10:37:55;13.90;99.70
2489;DHT22;1255;48.716;9.124;2024-02-21T10:40:23;13.70;99.20
2489;DHT22;1255;48.716;9.124;2024-02-21T10:42:55;13.10;99.40
2489;DHT22;1255;48.716;9.124;2024-02-21T10:45:23;13.00;99.90
2489;DHT22;1255;48.716;9.124;2024-02-21T10:47:56;13.00;99.90
2489;DHT22;1255;48.716;9.124;2024-02-21T10:50:29;12.90;99.90
2489;DHT22;1255;48.716;9.124;2024-02-21T10:53:07;12.90;99.90
2489;DHT22;1255;48.716;9.124;2024-02-21T10:55:38;12.80;99.90
2489;DHT22;1255;48.716;9.124;2024-02-21T10:58:08;12.50;99.90
2489;DHT22;1255;48.716;9.124;2024-02-21T11:00:36;12.40;99.90
2489;DHT22;1255;48.716;9.124;2024-02-21T11:03:04;12.30;99.90
2489;DHT22;1255;48.716;9.124;2024-02-21T11:05:32;12.40;99.90
2489;DHT22;1255;48.716;9.124;2024-02-21T11:08:02;12.80;99.90
2489;DHT22;1255;48.716;9.124;2024-02-21T11:10:30;12.80;99.90
2489;DHT22;1255;48.716;9.124;2024-02-21T11:13:06;12.60;99.60
2489;DHT22;1255;48.716;9.124;2024-02-21T11:15:33;12.40;99.90
2489;DHT22;1255;48.716;9.124;2024-02-21T11:18:00;12.40;99.90
2489;DHT22;1255;48.716;9.124;2024-02-21T11:20:34;12.60;99.50
2489;DHT22;1255;48.716;9.124;2024-02-21T11:23:02;12.70;99.40
2489;DHT22;1255;48.716;9.124;2024-02-21T11:25:29;12.90;98.50
2489;DHT22;1255;48.716;9.124;2024-02-21T11:28:03;13.10;98.80
2489;DHT22;1255;48.716;9.124;2024-02-21T11:30:30;13.20;98.40
2489;DHT22;1255;48.716;9.124;2024-02-21T11:33:02;12.90;98.20
2489;DHT22;1255;48.716;9.124;2024-02-21T11:35:32;12.70;98.30
2489;DHT22;1255;48.716;9.124;2024-02-21T11:38:11;12.70;98.70
2489;DHT22;1255;48.716;9.124;2024-02-21T11:40:41;13.10;98.60
2489;DHT22;1255;48.716;9.124;2024-02-21T11:43:08;13.60;98.60
2489;DHT22;1255;48.716;9.124;2024-02-21T11:45:35;13.60;97.30
2489;DHT22;1255;48.716;9.124;2024-02-21T11:48:02;13.60;97.60
2489;DHT22;1255;48.716;9.124;2024-02-21T11:50:31;13.40;96.70
2489;DHT22;1255;48.716;9.124;2024-02-21T11:52:57;13.00;97.20
2489;DHT22;1255;48.716;9.124;2024-02-21T11:55:26;12.50;97.40
2489;DHT22;1255;48.716;9.124;2024-02-21T11:57:52;12.10;97.70
2489;DHT22;1255;48.716;9.124;2024-02-21T12:00:20;12.00;98.30
2489;DHT22;1255;48.716;9.124;2024-02-21T12:02:47;12.10;98.90
2489;DHT22;1255;48.716;9.124;2024-02-21T12:05:14;12.00;98.40
2489;DHT22;1255;48.716;9.124;2024-02-21T12:07:41;12.00;97.70
2489;DHT22;1255;48.716;9.124;2024-02-21T12:10:09;12.20;97.80
2489;DHT22;1255;48.716;9.124;2024-02-21T12:12:38;12.40;96.90
2489;DHT22;1255;48.716;9.124;2024-02-21T12:15:05;12.80;96.70
2489;DHT22;1255;48.716;9.124;2024-02-21T12:17:32;13.10;95.90
2489;DHT22;1255;48.716;9.124;2024-02-21T12:20:00;13.20;95.40
2489;DHT22;1255;48.716;9.124;2024-02-21T12:22:28;13.30;95.60
2489;DHT22;1255;48.716;9.124;2024-02-21T12:24:57;13.30;94.90
2489;DHT22;1255;48.716;9.124;2024-02-21T12:27:24;13.50;95.30
2489;DHT22;1255;48.716;9.124;2024-02-21T12:29:53;13.50;95.00
2489;DHT22;1255;48.716;9.124;2024-02-21T12:32:20;14.00;95.00
2489;DHT22;1255;48.716;9.124;2024-02-21T12:34:46;14.40;95.80
2489;DHT22;1255;48.716;9.124;2024-02-21T12:37:13;14.60;94.40
2489;DHT22;1255;48.716;9.124;2024-02-21T12:39:41;14.50;94.50
2489;DHT22;1255;48.716;9.124;2024-02-21T12:42:08;14.00;94.80
2489;DHT22;1255;48.716;9.124;2024-02-21T12:44:37;13.50;95.10
2489;DHT22;1255;48.716;9.124;2024-02-21T12:47:05;13.70;95.70
2489;DHT22;1255;48.716;9.124;2024-02-21T12:49:31;13.70;94.70
2489;DHT22;1255;48.716;9.124;2024-02-21T12:51:58;13.50;94.80
2489;DHT22;1255;48.716;9.124;2024-02-21T12:54:25;13.00;94.90
2489;DHT22;1255;48.716;9.124;2024-02-21T12:56:52;12.90;94.90
2489;DHT22;1255;48.716;9.124;2024-02-21T12:59:19;13.10;95.60
2489;DHT22;1255;48.716;9.124;2024-02-21T13:01:46;13.20;94.60
2489;DHT22;1255;48.716;9.124;2024-02-21T13:04:14;13.10;94.30
2489;DHT22;1255;48.716;9.124;2024-02-21T13:06:41;12.90;94.50
2489;DHT22;1255;48.716;9.124;2024-02-21T13:09:07;12.70;94.50
2489;DHT22;1255;48.716;9.124;2024-02-21T13:11:36;12.80;94.60
2489;DHT22;1255;48.716;9.124;2024-02-21T13:14:03;12.70;94.90
2489;DHT22;1255;48.716;9.124;2024-02-21T13:16:30;12.60;94.30
2489;DHT22;1255;48.716;9.124;2024-02-21T13:18:56;12.80;94.60
2489;DHT22;1255;48.716;9.124;2024-02-21T13:21:24;12.90;93.70
2489;DHT22;1255;48.716;9.124;2024-02-21T13:23:51;13.10;94.10
2489;DHT22;1255;48.716;9.124;2024-02-21T13:26:18;13.30;94.00
2489;DHT22;1255;48.716;9.124;2024-02-21T13:28:45;13.40;94.10
2489;DHT22;1255;48.716;9.124;2024-02-21T13:31:13;13.40;94.00
2489;DHT22;1255;48.716;9.124;2024-02-21T13:33:42;13.30;94.40
2489;DHT22;1255;48.716;9.124;2024-02-21T13:36:10;13.30;94.40
2489;DHT22;1255;48.716;9.124;2024-02-21T13:38:38;13.40;93.80
2489;DHT22;1255;48.716;9.124;2024-02-21T13:41:05;13.40;93.60
2489;DHT22;1255;48.716;9.124;2024-02-21T13:43:31;13.50;94.00
2489;DHT22;1255;48.716;9.124;2024-02-21T13:45:59;13.30;93.40
2489;DHT22;1255;48.716;9.124;2024-02-21T13:48:26;13.30;93.50
2489;DHT22;1255;48.716;9.124;2024-02-21T13:50:54;13.20;93.90
2489;DHT22;1255;48.716;9.124;2024-02-21T13:53:21;13.20;94.10
2489;DHT22;1255;48.716;9.124;2024-02-21T13:55:49;13.10;94.10
2489;DHT22;1255;48.716;9.124;2024-02-21T13:58:16;13.00;93.90
2489;DHT22;1255;48.716;9.124;2024-02-21T14:00:43;12.90;94.20
2489;DHT22;1255;48.716;9.124;2024-02-21T14:03:10;12.70;94.50
2489;DHT22;1255;48.716;9.124;2024-02-21T14:05:37;12.50;94.20
2489;DHT22;1255;48.716;9.124;2024-02-21T14:08:05;12.60;94.90
2489;DHT22;1255;48.716;9.124;2024-02-21T14:10:32;12.70;95.00
2489;DHT22;1255;48.716;9.124;2024-02-21T14:13:00;12.80;94.80
2489;DHT22;1255;48.716;9.124;2024-02-21T14:15:27;12.80;94.30
2489;DHT22;1255;48.716;9.124;2024-02-21T14:17:53;12.90;94.10
2489;DHT22;1255;48.716;9.124;2024-02-21T14:20:21;12.90;94.00
2489;DHT22;1255;48.716;9.124;2024-02-21T14:22:48;12.90;93.70
2489;DHT22;1255;48.716;9.124;2024-02-21T14:25:15;12.80;93.70
2489;DHT22;1255;48.716;9.124;2024-02-21T14:27:42;12.70;93.60
2489;DHT22;1255;48.716;9.124;2024-02-21T14:30:10;12.50;94.40
2489;DHT22;1255;48.716;9.124;2024-02-21T14:32:38;12.50;94.00
2489;DHT22;1255;48.716;9.124;2024-02-21T14:35:07;12.50;94.30
2489;DHT22;1255;48.716;9.124;2024-02-21T14:37:34;12.60;94.10
2489;DHT22;1255;48.716;9.124;2024-02-21T14:40:00;12.50;94.30
2489;DHT22;1255;48.716;9.124;2024-02-21T14:42:27;12.50;94.40
2489;DHT22;1255;48.716;9.124;2024-02-21T14:44:54;12.50;94.30
2489;DHT22;1255;48.716;9.124;2024-02-21T14:47:30;12.40;94.40
2489;DHT22;1255;48.716;9.124;2024-02-21T14:49:57;12.40;94.70
2489;DHT22;1255;48.716;9.124;2024-02-21T14:52:24;12.30;94.60
2489;DHT22;1255;48.716;9.124;2024-02-21T14:54:52;12.20;95.20
2489;DHT22;1255;48.716;9.124;2024-02-21T14:57:19;12.20;94.20
2489;DHT22;1255;48.716;9.124;2024-02-21T14:59:46;12.10;94.70
2489;DHT22;1255;48.716;9.124;2024-02-21T15:02:15;12.00;95.50
2489;DHT22;1255;48.716;9.124;2024-02-21T15:04:43;12.00;95.90
2489;DHT22;1255;48.716;9.124;2024-02-21T15:07:09;12.00;96.20
2489;DHT22;1255;48.716;9.124;2024-02-21T15:09:36;12.00;96.50
2489;DHT22;1255;48.716;9.124;2024-02-21T15:12:03;12.00;96.50
2489;DHT22;1255;48.716;9.124;2024-02-21T15:14:31;12.00;96.80
2489;DHT22;1255;48.716;9.124;2024-02-21T15:17:02;12.00;97.20
2489;DHT22;1255;48.716;9.124;2024-02-21T15:19:29;12.00;97.30
2489;DHT22;1255;48.716;9.124;2024-02-21T15:21:58;12.00;97.60
2489;DHT22;1255;48.716;9.124;2024-02-21T15:24:28;12.00;97.60
2489;DHT22;1255;48.716;9.124;2024-02-21T15:26:55;12.00;97.60
2489;DHT22;1255;48.716;9.124;2024-02-21T15:29:21;12.00;97.80
2489;DHT22;1255;48.716;9.124;2024-02-21T15:31:49;12.00;98.20
2489;DHT22;1255;48.716;9.124;2024-02-21T15:34:15;12.00;98.20
2489;DHT22;1255;48.716;9.124;2024-02-21T15:36:43;12.00;98.20
2489;DHT22;1255;48.716;9.124;2024-02-21T15:39:11;11.90;99.00
2489;DHT22;1255;48.716;9.124;2024-02-21T15:41:37;11.90;98.90
2489;DHT22;1255;48.716;9.124;2024-02-21T15:44:04;11.90;99.10
2489;DHT22;1255;48.716;9.124;2024-02-21T15:46:31;11.90;99.50
2489;DHT22;1255;48.716;9.124;2024-02-21T15:48:59;11.90;99.90
2489;DHT22;1255;48.716;9.124;2024-02-21T15:51:26;11.80;99.30
2489;DHT22;1255;48.716;9.124;2024-02-21T15:53:55;11.70;99.50
2489;DHT22;1255;48.716;9.124;2024-02-21T15:56:24;11.70;99.80
2489;DHT22;1255;48.716;9.124;2024-02-21T15:58:52;11.60;99.90
2489;DHT22;1255;48.716;9.124;2024-02-21T16:01:20;11.60;99.80
2489;DHT22;1255;48.716;9.124;2024-02-21T16:03:48;11.50;99.90
2489;DHT22;1255;48.716;9.124;2024-02-21T16:06:15;11.50;99.90
2489;DHT22;1255;48.716;9.124;2024-02-21T16:08:42;11.50;99.90
2489;DHT22;1255;48.716;9.124;2024-02-21T16:11:13;11.50;99.90
2489;DHT22;1255;48.716;9.124;2024-02-21T16:13:44;11.50;99.90